sensor_id;sensor_type;location;lat;lon;timestamp;P1;durP1;ratioP1;P2;durP2;ratioP2
34152;SDS011;20426;48.372;10.888;2024-01-11T00:00:17;25.45;;;10.25;;
34152;SDS011;20426;48.372;10.888;2024-01-11T00:00:49;22.85;;;9.15;;
34152;SDS011;20426;48.372;10.888;2024-01-11T00:01:20;23.95;;;9.98;;
34152;SDS011;20426;48.372;10.888;2024-01-11T00:01:50;17.15;;;8.70;;
34152;SDS011;20426;48.372;10.888;2024-01-11T00:02:21;25.38;;;9.93;;
34152;SDS011;20426;48.372;10.888;2024-01-11T00:02:52;22.35;;;9.43;;
34152;SDS011;20426;48.372;10.888;2024-01-11T00:03:23;21.88;;;9.68;;
34152;SDS011;20426;48.372;10.888;2024-01-11T00:03:53;22.13;;;9.55;;
34152;SDS011;20426;48.372;10.888;2024-01-11T00:04:24;25.40;;;8.57;;
34152;SDS011;20426;48.372;10.888;2024-01-11T00:04:56;16.45;;;7.70;;
34152;SDS011;20426;48.372;10.888;2024-01-11T00:05:26;16.58;;;8.95;;
34152;SDS011;20426;48.372;10.888;2024-01-11T00:08:14;21.55;;;7.32;;
34152;SDS011;20426;48.372;10.888;2024-01-11T00:08:44;17.02;;;8.60;;
34152;SDS011;20426;48.372;10.888;2024-01-11T00:09:15;23.45;;;7.38;;
34152;SDS011;20426;48.372;10.888;2024-01-11T00:09:46;18.58;;;8.45;;
34152;SDS011;20426;48.372;10.888;2024-01-11T00:10:17;19.02;;;8.23;;
34152;SDS011;20426;48.372;10.888;2024-01-11T00:10:48;19.00;;;8.25;;
34152;SDS011;20426;48.372;10.888;2024-01-11T00:11:18;14.50;;;7.78;;
34152;SDS011;20426;48.372;10.888;2024-01-11T00:11:49;22.02;;;8.07;;
34152;SDS011;20426;48.372;10.888;2024-01-11T00:12:20;20.77;;;8.90;;
34152;SDS011;20426;48.372;10.888;2024-01-11T00:12:50;14.57;;;7.47;;
34152;SDS011;20426;48.372;10.888;2024-01-11T00:13:21;18.98;;;9.00;;
34152;SDS011;20426;48.372;10.888;2024-01-11T00:13:52;25.65;;;9.27;;
34152;SDS011;20426;48.372;10.888;2024-01-11T00:14:23;19.83;;;8.00;;
34152;SDS011;20426;48.372;10.888;2024-01-11T00:14:53;21.73;;;8.00;;
34152;SDS011;20426;48.372;10.888;2024-01-11T00:15:24;21.52;;;9.80;;
34152;SDS011;20426;48.372;10.888;2024-01-11T00:15:55;17.42;;;9.05;;
34152;SDS011;20426;48.372;10.888;2024-01-11T00:16:25;19.42;;;9.57;;
34152;SDS011;20426;48.372;10.888;2024-01-11T00:16:56;18.52;;;7.75;;
34152;SDS011;20426;48.372;10.888;2024-01-11T00:17:27;15.95;;;8.13;;
34152;SDS011;20426;48.372;10.888;2024-01-11T00:17:57;19.13;;;8.63;;
34152;SDS011;20426;48.372;10.888;2024-01-11T00:18:28;17.92;;;7.70;;
34152;SDS011;20426;48.372;10.888;2024-01-11T00:18:59;19.02;;;9.30;;
34152;SDS011;20426;48.372;10.888;2024-01-11T00:19:30;17.80;;;8.23;;
34152;SDS011;20426;48.372;10.888;2024-01-11T00:20:01;18.67;;;9.32;;
34152;SDS011;20426;48.372;10.888;2024-01-11T00:20:32;18.10;;;8.35;;
34152;SDS011;20426;48.372;10.888;2024-01-11T00:21:03;19.05;;;8.20;;
34152;SDS011;20426;48.372;10.888;2024-01-11T00:21:34;19.73;;;9.15;;
34152;SDS011;20426;48.372;10.888;2024-01-11T00:22:05;19.58;;;7.13;;
34152;SDS011;20426;48.372;10.888;2024-01-11T00:22:36;20.38;;;8.63;;
34152;SDS011;20426;48.372;10.888;2024-01-11T00:23:06;17.00;;;8.88;;
34152;SDS011;20426;48.372;10.888;2024-01-11T00:23:37;17.00;;;7.88;;
34152;SDS011;20426;48.372;10.888;2024-01-11T00:24:08;17.20;;;7.82;;
34152;SDS011;20426;48.372;10.888;2024-01-11T00:24:39;25.88;;;7.82;;
34152;SDS011;20426;48.372;10.888;2024-01-11T00:25:10;19.80;;;9.73;;
34152;SDS011;20426;48.372;10.888;2024-01-11T00:25:41;17.65;;;7.53;;
34152;SDS011;20426;48.372;10.888;2024-01-11T00:26:12;16.45;;;8.23;;
34152;SDS011;20426;48.372;10.888;2024-01-11T00:26:43;19.30;;;8.55;;
34152;SDS011;20426;48.372;10.888;2024-01-11T00:27:13;17.42;;;7.00;;
34152;SDS011;20426;48.372;10.888;2024-01-11T00:27:44;23.42;;;8.88;;
34152;SDS011;20426;48.372;10.888;2024-01-11T00:28:15;20.30;;;8.07;;
34152;SDS011;20426;48.372;10.888;2024-01-11T00:28:46;17.63;;;8.50;;
34152;SDS011;20426;48.372;10.888;2024-01-11T00:29:16;17.08;;;7.28;;
34152;SDS011;20426;48.372;10.888;2024-01-11T00:29:47;18.02;;;8.13;;
34152;SDS011;20426;48.372;10.888;2024-01-11T00:30:18;21.17;;;8.20;;
34152;SDS011;20426;48.372;10.888;2024-01-11T00:30:48;20.48;;;8.13;;
34152;SDS011;20426;48.372;10.888;2024-01-11T00:31:19;19.88;;;8.88;;
34152;SDS011;20426;48.372;10.888;2024-01-11T00:31:50;17.88;;;8.70;;
34152;SDS011;20426;48.372;10.888;2024-01-11T00:32:20;18.00;;;6.95;;
34152;SDS011;20426;48.372;10.888;2024-01-11T00:32:51;17.95;;;7.90;;
34152;SDS011;20426;48.372;10.888;2024-01-11T00:33:22;13.60;;;7.25;;
34152;SDS011;20426;48.372;10.888;2024-01-11T00:33:52;16.33;;;7.93;;
34152;SDS011;20426;48.372;10.888;2024-01-11T00:34:23;14.77;;;7.68;;
34152;SDS011;20426;48.372;10.888;2024-01-11T00:34:54;17.48;;;8.60;;
34152;SDS011;20426;48.372;10.888;2024-01-11T00:35:24;15.27;;;6.75;;
34152;SDS011;20426;48.372;10.888;2024-01-11T00:35:55;14.27;;;6.90;;
34152;SDS011;20426;48.372;10.888;2024-01-11T00:36:26;18.83;;;7.20;;
34152;SDS011;20426;48.372;10.888;2024-01-11T00:36:58;19.98;;;9.35;;
34152;SDS011;20426;48.372;10.888;2024-01-11T00:37:29;19.35;;;8.32;;
34152;SDS011;20426;48.372;10.888;2024-01-11T00:37:59;18.73;;;7.63;;
34152;SDS011;20426;48.372;10.888;2024-01-11T00:38:30;19.10;;;7.90;;
34152;SDS011;20426;48.372;10.888;2024-01-11T00:39:01;15.65;;;7.28;;
34152;SDS011;20426;48.372;10.888;2024-01-11T00:39:32;18.00;;;8.48;;
34152;SDS011;20426;48.372;10.888;2024-01-11T00:40:02;16.33;;;7.57;;
34152;SDS011;20426;48.372;10.888;2024-01-11T00:40:34;19.63;;;8.55;;
34152;SDS011;20426;48.372;10.888;2024-01-11T00:41:05;18.17;;;8.40;;
34152;SDS011;20426;48.372;10.888;2024-01-11T00:41:36;19.52;;;7.97;;
34152;SDS011;20426;48.372;10.888;2024-01-11T00:42:07;17.30;;;7.82;;
34152;SDS011;20426;48.372;10.888;2024-01-11T00:42:38;20.55;;;8.32;;
34152;SDS011;20426;48.372;10.888;2024-01-11T00:43:08;16.38;;;8.27;;
34152;SDS011;20426;48.372;10.888;2024-01-11T00:43:39;18.50;;;7.80;;
34152;SDS011;20426;48.372;10.888;2024-01-11T00:44:10;16.83;;;8.57;;
34152;SDS011;20426;48.372;10.888;2024-01-11T00:44:40;20.42;;;8.45;;
34152;SDS011;20426;48.372;10.888;2024-01-11T00:45:11;18.77;;;8.13;;
34152;SDS011;20426;48.372;10.888;2024-01-11T00:45:43;18.95;;;8.50;;
34152;SDS011;20426;48.372;10.888;2024-01-11T00:46:15;19.70;;;7.95;;
34152;SDS011;20426;48.372;10.888;2024-01-11T00:46:46;24.73;;;8.70;;
34152;SDS011;20426;48.372;10.888;2024-01-11T00:47:17;19.25;;;8.73;;
34152;SDS011;20426;48.372;10.888;2024-01-11T00:47:48;18.63;;;7.70;;
34152;SDS011;20426;48.372;10.888;2024-01-11T00:48:18;16.90;;;8.63;;
34152;SDS011;20426;48.372;10.888;2024-01-11T00:48:49;16.50;;;7.50;;
34152;SDS011;20426;48.372;10.888;2024-01-11T00:49:20;16.77;;;8.70;;
34152;SDS011;20426;48.372;10.888;2024-01-11T00:49:50;19.75;;;8.57;;
34152;SDS011;20426;48.372;10.888;2024-01-11T00:50:23;16.95;;;8.18;;
34152;SDS011;20426;48.372;10.888;2024-01-11T00:50:54;14.35;;;7.78;;
34152;SDS011;20426;48.372;10.888;2024-01-11T00:51:24;15.43;;;7.97;;
34152;SDS011;20426;48.372;10.888;2024-01-11T00:51:55;18.42;;;8.23;;
34152;SDS011;20426;48.372;10.888;2024-01-11T00:52:26;17.10;;;8.68;;
34152;SDS011;20426;48.372;10.888;2024-01-11T00:52:56;18.02;;;7.93;;
34152;SDS011;20426;48.372;10.888;2024-01-11T00:53:27;15.52;;;7.07;;
34152;SDS011;20426;48.372;10.888;2024-01-11T00:54:00;17.45;;;7.93;;
34152;SDS011;20426;48.372;10.888;2024-01-11T00:54:31;23.38;;;9.32;;
34152;SDS011;20426;48.372;10.888;2024-01-11T00:55:02;21.08;;;8.52;;
34152;SDS011;20426;48.372;10.888;2024-01-11T00:55:32;17.60;;;8.43;;
34152;SDS011;20426;48.372;10.888;2024-01-11T00:56:03;16.33;;;7.95;;
34152;SDS011;20426;48.372;10.888;2024-01-11T00:56:34;16.65;;;8.15;;
34152;SDS011;20426;48.372;10.888;2024-01-11T00:57:04;19.77;;;8.95;;
34152;SDS011;20426;48.372;10.888;2024-01-11T00:57:35;20.80;;;8.13;;
34152;SDS011;20426;48.372;10.888;2024-01-11T00:58:06;27.17;;;8.50;;
34152;SDS011;20426;48.372;10.888;2024-01-11T00:58:38;16.95;;;7.90;;
34152;SDS011;20426;48.372;10.888;2024-01-11T00:59:08;23.20;;;9.00;;
34152;SDS011;20426;48.372;10.888;2024-01-11T00:59:39;22.52;;;9.45;;
34152;SDS011;20426;48.372;10.888;2024-01-11T01:00:11;20.02;;;8.68;;
34152;SDS011;20426;48.372;10.888;2024-01-11T01:00:45;17.17;;;7.80;;
34152;SDS011;20426;48.372;10.888;2024-01-11T01:01:16;20.52;;;9.85;;
34152;SDS011;20426;48.372;10.888;2024-01-11T01:01:49;16.00;;;8.57;;
34152;SDS011;20426;48.372;10.888;2024-01-11T01:02:20;19.67;;;8.50;;
34152;SDS011;20426;48.372;10.888;2024-01-11T01:02:51;16.00;;;8.13;;
34152;SDS011;20426;48.372;10.888;2024-01-11T01:03:22;25.35;;;9.43;;
34152;SDS011;20426;48.372;10.888;2024-01-11T01:03:53;19.92;;;9.30;;
34152;SDS011;20426;48.372;10.888;2024-01-11T01:04:23;21.00;;;8.27;;
34152;SDS011;20426;48.372;10.888;2024-01-11T01:04:54;20.45;;;9.23;;
34152;SDS011;20426;48.372;10.888;2024-01-11T01:05:25;22.13;;;9.68;;
34152;SDS011;20426;48.372;10.888;2024-01-11T01:05:55;17.92;;;9.43;;
34152;SDS011;20426;48.372;10.888;2024-01-11T01:06:26;19.45;;;8.40;;
34152;SDS011;20426;48.372;10.888;2024-01-11T01:06:57;18.33;;;8.25;;
34152;SDS011;20426;48.372;10.888;2024-01-11T01:07:28;21.45;;;8.63;;
34152;SDS011;20426;48.372;10.888;2024-01-11T01:07:58;21.35;;;8.20;;
34152;SDS011;20426;48.372;10.888;2024-01-11T01:08:29;22.95;;;9.30;;
34152;SDS011;20426;48.372;10.888;2024-01-11T01:08:59;15.88;;;8.57;;
34152;SDS011;20426;48.372;10.888;2024-01-11T01:09:30;17.70;;;7.50;;
34152;SDS011;20426;48.372;10.888;2024-01-11T01:10:01;21.15;;;8.65;;
34152;SDS011;20426;48.372;10.888;2024-01-11T01:10:32;22.48;;;9.13;;
34152;SDS011;20426;48.372;10.888;2024-01-11T01:11:03;19.13;;;9.00;;
34152;SDS011;20426;48.372;10.888;2024-01-11T01:11:34;18.15;;;8.98;;
34152;SDS011;20426;48.372;10.888;2024-01-11T01:12:04;18.20;;;8.35;;
34152;SDS011;20426;48.372;10.888;2024-01-11T01:12:35;17.90;;;8.23;;
34152;SDS011;20426;48.372;10.888;2024-01-11T01:13:06;23.13;;;8.15;;
34152;SDS011;20426;48.372;10.888;2024-01-11T01:13:37;19.98;;;9.68;;
34152;SDS011;20426;48.372;10.888;2024-01-11T01:14:07;22.85;;;9.70;;
34152;SDS011;20426;48.372;10.888;2024-01-11T01:14:38;19.15;;;8.45;;
34152;SDS011;20426;48.372;10.888;2024-01-11T01:15:09;27.48;;;9.18;;
34152;SDS011;20426;48.372;10.888;2024-01-11T01:15:39;17.02;;;8.15;;
34152;SDS011;20426;48.372;10.888;2024-01-11T01:16:10;15.85;;;8.25;;
34152;SDS011;20426;48.372;10.888;2024-01-11T01:16:41;22.35;;;8.90;;
34152;SDS011;20426;48.372;10.888;2024-01-11T01:17:12;20.63;;;9.43;;
34152;SDS011;20426;48.372;10.888;2024-01-11T01:17:42;23.58;;;10.73;;
34152;SDS011;20426;48.372;10.888;2024-01-11T01:18:13;21.95;;;10.13;;
34152;SDS011;20426;48.372;10.888;2024-01-11T01:18:44;17.08;;;9.35;;
34152;SDS011;20426;48.372;10.888;2024-01-11T01:19:15;16.10;;;8.02;;
34152;SDS011;20426;48.372;10.888;2024-01-11T01:19:45;22.05;;;9.32;;
34152;SDS011;20426;48.372;10.888;2024-01-11T01:20:16;18.63;;;9.15;;
34152;SDS011;20426;48.372;10.888;2024-01-11T01:20:47;18.92;;;9.07;;
34152;SDS011;20426;48.372;10.888;2024-01-11T01:21:17;19.80;;;8.80;;
34152;SDS011;20426;48.372;10.888;2024-01-11T01:21:48;22.73;;;9.45;;
34152;SDS011;20426;48.372;10.888;2024-01-11T01:22:19;20.60;;;8.95;;
34152;SDS011;20426;48.372;10.888;2024-01-11T01:22:49;21.52;;;9.35;;
34152;SDS011;20426;48.372;10.888;2024-01-11T01:23:20;16.27;;;8.38;;
34152;SDS011;20426;48.372;10.888;2024-01-11T01:23:51;23.50;;;10.15;;
34152;SDS011;20426;48.372;10.888;2024-01-11T01:24:21;20.17;;;9.73;;
34152;SDS011;20426;48.372;10.888;2024-01-11T01:24:52;24.55;;;10.30;;
34152;SDS011;20426;48.372;10.888;2024-01-11T01:25:23;21.35;;;9.40;;
34152;SDS011;20426;48.372;10.888;2024-01-11T01:25:54;24.20;;;9.45;;
34152;SDS011;20426;48.372;10.888;2024-01-11T01:26:24;26.35;;;10.40;;
34152;SDS011;20426;48.372;10.888;2024-01-11T01:26:55;21.58;;;10.27;;
34152;SDS011;20426;48.372;10.888;2024-01-11T01:27:25;20.98;;;8.88;;
34152;SDS011;20426;48.372;10.888;2024-01-11T01:27:57;16.08;;;8.02;;
34152;SDS011;20426;48.372;10.888;2024-01-11T01:28:29;18.52;;;8.77;;
34152;SDS011;20426;48.372;10.888;2024-01-11T01:29:00;19.80;;;8.65;;
34152;SDS011;20426;48.372;10.888;2024-01-11T01:29:31;23.25;;;10.32;;
34152;SDS011;20426;48.372;10.888;2024-01-11T01:30:02;20.45;;;9.75;;
34152;SDS011;20426;48.372;10.888;2024-01-11T01:30:33;18.73;;;9.43;;
34152;SDS011;20426;48.372;10.888;2024-01-11T01:31:04;18.63;;;8.80;;
34152;SDS011;20426;48.372;10.888;2024-01-11T01:31:34;24.33;;;10.05;;
34152;SDS011;20426;48.372;10.888;2024-01-11T01:32:07;19.63;;;10.23;;
34152;SDS011;20426;48.372;10.888;2024-01-11T01:32:38;25.27;;;9.70;;
34152;SDS011;20426;48.372;10.888;2024-01-11T01:33:08;25.88;;;9.80;;
34152;SDS011;20426;48.372;10.888;2024-01-11T01:33:39;22.65;;;11.38;;
34152;SDS011;20426;48.372;10.888;2024-01-11T01:34:10;23.75;;;10.85;;
34152;SDS011;20426;48.372;10.888;2024-01-11T01:34:41;24.83;;;10.23;;
34152;SDS011;20426;48.372;10.888;2024-01-11T01:35:12;24.27;;;9.98;;
34152;SDS011;20426;48.372;10.888;2024-01-11T01:35:42;25.45;;;10.85;;
34152;SDS011;20426;48.372;10.888;2024-01-11T01:36:13;27.30;;;10.10;;
34152;SDS011;20426;48.372;10.888;2024-01-11T01:36:44;23.65;;;9.57;;
34152;SDS011;20426;48.372;10.888;2024-01-11T01:37:15;19.55;;;9.57;;
34152;SDS011;20426;48.372;10.888;2024-01-11T01:37:45;23.02;;;10.77;;
34152;SDS011;20426;48.372;10.888;2024-01-11T01:38:16;20.70;;;9.98;;
34152;SDS011;20426;48.372;10.888;2024-01-11T01:38:47;22.95;;;11.38;;
34152;SDS011;20426;48.372;10.888;2024-01-11T01:39:18;21.48;;;9.68;;
34152;SDS011;20426;48.372;10.888;2024-01-11T01:39:48;22.60;;;10.88;;
34152;SDS011;20426;48.372;10.888;2024-01-11T01:40:19;21.40;;;10.13;;
34152;SDS011;20426;48.372;10.888;2024-01-11T01:40:50;23.27;;;9.85;;
34152;SDS011;20426;48.372;10.888;2024-01-11T01:41:20;25.02;;;10.68;;
34152;SDS011;20426;48.372;10.888;2024-01-11T01:41:51;23.95;;;10.95;;
34152;SDS011;20426;48.372;10.888;2024-01-11T01:42:22;22.48;;;10.07;;
34152;SDS011;20426;48.372;10.888;2024-01-11T01:42:57;24.48;;;10.95;;
34152;SDS011;20426;48.372;10.888;2024-01-11T01:43:30;21.88;;;11.63;;
34152;SDS011;20426;48.372;10.888;2024-01-11T01:44:00;20.17;;;9.35;;
34152;SDS011;20426;48.372;10.888;2024-01-11T01:44:31;18.95;;;9.90;;
34152;SDS011;20426;48.372;10.888;2024-01-11T01:45:02;20.25;;;9.68;;
34152;SDS011;20426;48.372;10.888;2024-01-11T01:45:33;22.83;;;10.43;;
34152;SDS011;20426;48.372;10.888;2024-01-11T01:46:03;21.98;;;9.55;;
34152;SDS011;20426;48.372;10.888;2024-01-11T01:46:35;25.02;;;10.57;;
34152;SDS011;20426;48.372;10.888;2024-01-11T01:47:07;20.50;;;9.90;;
34152;SDS011;20426;48.372;10.888;2024-01-11T01:47:39;28.83;;;11.35;;
34152;SDS011;20426;48.372;10.888;2024-01-11T01:48:12;31.95;;;12.38;;
34152;SDS011;20426;48.372;10.888;2024-01-11T01:48:42;23.80;;;11.48;;
34152;SDS011;20426;48.372;10.888;2024-01-11T01:49:13;22.58;;;10.80;;
34152;SDS011;20426;48.372;10.888;2024-01-11T01:49:44;21.00;;;10.60;;
34152;SDS011;20426;48.372;10.888;2024-01-11T01:50:15;19.98;;;9.70;;
34152;SDS011;20426;48.372;10.888;2024-01-11T01:50:48;19.90;;;9.65;;
34152;SDS011;20426;48.372;10.888;2024-01-11T01:51:22;22.15;;;10.45;;
34152;SDS011;20426;48.372;10.888;2024-01-11T01:51:56;24.00;;;10.82;;
34152;SDS011;20426;48.372;10.888;2024-01-11T01:52:27;22.27;;;9.85;;
34152;SDS011;20426;48.372;10.888;2024-01-11T01:52:58;21.67;;;10.27;;
34152;SDS011;20426;48.372;10.888;2024-01-11T01:54:38;25.60;;;9.98;;
34152;SDS011;20426;48.372;10.888;2024-01-11T01:55:09;19.73;;;9.15;;
34152;SDS011;20426;48.372;10.888;2024-01-11T01:55:42;21.30;;;10.23;;
34152;SDS011;20426;48.372;10.888;2024-01-11T01:56:13;21.27;;;9.93;;
34152;SDS011;20426;48.372;10.888;2024-01-11T01:56:43;25.35;;;9.20;;
34152;SDS011;20426;48.372;10.888;2024-01-11T01:57:14;23.77;;;10.57;;
34152;SDS011;20426;48.372;10.888;2024-01-11T01:57:46;24.15;;;8.82;;
34152;SDS011;20426;48.372;10.888;2024-01-11T01:58:18;23.58;;;11.00;;
34152;SDS011;20426;48.372;10.888;2024-01-11T01:58:50;22.88;;;8.93;;
34152;SDS011;20426;48.372;10.888;2024-01-11T01:59:23;27.05;;;10.48;;
34152;SDS011;20426;48.372;10.888;2024-01-11T01:59:55;24.40;;;11.77;;
34152;SDS011;20426;48.372;10.888;2024-01-11T02:00:27;23.95;;;10.07;;
34152;SDS011;20426;48.372;10.888;2024-01-11T02:00:57;22.63;;;10.02;;
34152;SDS011;20426;48.372;10.888;2024-01-11T02:01:28;23.92;;;9.90;;
34152;SDS011;20426;48.372;10.888;2024-01-11T02:02:00;28.40;;;10.55;;
34152;SDS011;20426;48.372;10.888;2024-01-11T02:02:31;25.35;;;10.27;;
34152;SDS011;20426;48.372;10.888;2024-01-11T02:03:04;24.40;;;10.82;;
34152;SDS011;20426;48.372;10.888;2024-01-11T02:03:35;21.70;;;9.85;;
34152;SDS011;20426;48.372;10.888;2024-01-11T02:04:07;29.70;;;10.68;;
34152;SDS011;20426;48.372;10.888;2024-01-11T02:04:37;21.15;;;9.50;;
34152;SDS011;20426;48.372;10.888;2024-01-11T02:05:08;20.63;;;10.40;;
34152;SDS011;20426;48.372;10.888;2024-01-11T02:05:41;23.58;;;10.57;;
34152;SDS011;20426;48.372;10.888;2024-01-11T02:06:12;25.10;;;11.00;;
34152;SDS011;20426;48.372;10.888;2024-01-11T02:06:45;24.42;;;10.35;;
34152;SDS011;20426;48.372;10.888;2024-01-11T02:07:17;20.95;;;10.70;;
34152;SDS011;20426;48.372;10.888;2024-01-11T02:07:49;25.70;;;11.38;;
34152;SDS011;20426;48.372;10.888;2024-01-11T02:08:22;26.27;;;10.38;;
34152;SDS011;20426;48.372;10.888;2024-01-11T02:08:55;16.65;;;9.57;;
34152;SDS011;20426;48.372;10.888;2024-01-11T02:09:26;23.20;;;10.02;;
34152;SDS011;20426;48.372;10.888;2024-01-11T02:09:58;22.58;;;10.45;;
34152;SDS011;20426;48.372;10.888;2024-01-11T02:10:29;32.53;;;10.25;;
34152;SDS011;20426;48.372;10.888;2024-01-11T02:11:02;28.77;;;10.88;;
34152;SDS011;20426;48.372;10.888;2024-01-11T02:11:33;29.60;;;11.30;;
34152;SDS011;20426;48.372;10.888;2024-01-11T02:12:04;27.67;;;12.05;;
34152;SDS011;20426;48.372;10.888;2024-01-11T02:12:36;20.15;;;10.48;;
34152;SDS011;20426;48.372;10.888;2024-01-11T02:13:07;23.52;;;11.00;;
34152;SDS011;20426;48.372;10.888;2024-01-11T02:13:38;20.73;;;10.05;;
34152;SDS011;20426;48.372;10.888;2024-01-11T02:14:10;25.67;;;11.52;;
34152;SDS011;20426;48.372;10.888;2024-01-11T02:14:41;27.75;;;11.27;;
34152;SDS011;20426;48.372;10.888;2024-01-11T02:15:12;25.10;;;9.57;;
34152;SDS011;20426;48.372;10.888;2024-01-11T02:15:44;23.08;;;9.80;;
34152;SDS011;20426;48.372;10.888;2024-01-11T02:16:15;24.67;;;11.40;;
34152;SDS011;20426;48.372;10.888;2024-01-11T02:16:46;21.50;;;10.40;;
34152;SDS011;20426;48.372;10.888;2024-01-11T02:17:16;23.65;;;10.65;;
34152;SDS011;20426;48.372;10.888;2024-01-11T02:17:47;22.52;;;9.65;;
34152;SDS011;20426;48.372;10.888;2024-01-11T02:18:18;23.52;;;10.73;;
34152;SDS011;20426;48.372;10.888;2024-01-11T02:18:48;25.52;;;11.20;;
34152;SDS011;20426;48.372;10.888;2024-01-11T02:19:19;26.58;;;10.60;;
34152;SDS011;20426;48.372;10.888;2024-01-11T02:19:50;24.55;;;10.23;;
34152;SDS011;20426;48.372;10.888;2024-01-11T02:20:21;21.52;;;9.27;;
34152;SDS011;20426;48.372;10.888;2024-01-11T02:20:52;21.77;;;10.00;;
34152;SDS011;20426;48.372;10.888;2024-01-11T02:21:22;22.70;;;10.63;;
34152;SDS011;20426;48.372;10.888;2024-01-11T02:21:55;24.00;;;11.38;;
34152;SDS011;20426;48.372;10.888;2024-01-11T02:22:32;23.70;;;11.25;;
34152;SDS011;20426;48.372;10.888;2024-01-11T02:23:05;26.08;;;10.25;;
34152;SDS011;20426;48.372;10.888;2024-01-11T02:23:42;23.77;;;11.10;;
34152;SDS011;20426;48.372;10.888;2024-01-11T02:24:17;20.75;;;10.07;;
34152;SDS011;20426;48.372;10.888;2024-01-11T02:24:48;22.35;;;10.10;;
34152;SDS011;20426;48.372;10.888;2024-01-11T02:25:18;21.00;;;9.55;;
34152;SDS011;20426;48.372;10.888;2024-01-11T02:25:49;19.02;;;8.60;;
34152;SDS011;20426;48.372;10.888;2024-01-11T02:26:20;22.88;;;11.05;;
34152;SDS011;20426;48.372;10.888;2024-01-11T02:27:30;24.95;;;10.93;;
34152;SDS011;20426;48.372;10.888;2024-01-11T02:28:00;27.42;;;10.50;;
34152;SDS011;20426;48.372;10.888;2024-01-11T02:28:31;22.88;;;10.00;;
34152;SDS011;20426;48.372;10.888;2024-01-11T02:29:02;18.45;;;9.43;;
34152;SDS011;20426;48.372;10.888;2024-01-11T02:29:33;23.20;;;10.18;;
34152;SDS011;20426;48.372;10.888;2024-01-11T02:30:04;26.02;;;11.30;;
34152;SDS011;20426;48.372;10.888;2024-01-11T02:30:35;19.33;;;10.27;;
34152;SDS011;20426;48.372;10.888;2024-01-11T02:31:07;24.92;;;10.77;;
34152;SDS011;20426;48.372;10.888;2024-01-11T02:31:37;20.23;;;10.35;;
34152;SDS011;20426;48.372;10.888;2024-01-11T02:32:08;22.38;;;9.85;;
34152;SDS011;20426;48.372;10.888;2024-01-11T02:32:39;33.10;;;10.77;;
34152;SDS011;20426;48.372;10.888;2024-01-11T02:33:10;19.55;;;8.82;;
34152;SDS011;20426;48.372;10.888;2024-01-11T02:33:42;22.70;;;10.52;;
34152;SDS011;20426;48.372;10.888;2024-01-11T02:34:13;22.83;;;10.27;;
34152;SDS011;20426;48.372;10.888;2024-01-11T02:34:44;23.88;;;11.18;;
34152;SDS011;20426;48.372;10.888;2024-01-11T02:35:15;18.75;;;10.10;;
34152;SDS011;20426;48.372;10.888;2024-01-11T02:35:47;29.02;;;10.82;;
34152;SDS011;20426;48.372;10.888;2024-01-11T02:36:18;23.15;;;10.23;;
34152;SDS011;20426;48.372;10.888;2024-01-11T02:36:51;24.00;;;10.68;;
34152;SDS011;20426;48.372;10.888;2024-01-11T02:37:22;26.08;;;10.80;;
34152;SDS011;20426;48.372;10.888;2024-01-11T02:37:53;22.77;;;10.57;;
34152;SDS011;20426;48.372;10.888;2024-01-11T02:38:24;24.13;;;11.15;;
34152;SDS011;20426;48.372;10.888;2024-01-11T02:38:55;27.05;;;11.07;;
34152;SDS011;20426;48.372;10.888;2024-01-11T02:39:26;21.33;;;9.68;;
34152;SDS011;20426;48.372;10.888;2024-01-11T02:39:57;22.52;;;10.80;;
34152;SDS011;20426;48.372;10.888;2024-01-11T02:40:28;27.92;;;11.63;;
34152;SDS011;20426;48.372;10.888;2024-01-11T02:41:00;21.48;;;11.85;;
34152;SDS011;20426;48.372;10.888;2024-01-11T02:41:31;29.58;;;11.85;;
34152;SDS011;20426;48.372;10.888;2024-01-11T02:42:03;25.77;;;10.45;;
34152;SDS011;20426;48.372;10.888;2024-01-11T02:42:34;28.23;;;11.52;;
34152;SDS011;20426;48.372;10.888;2024-01-11T02:43:11;20.92;;;10.98;;
34152;SDS011;20426;48.372;10.888;2024-01-11T02:43:48;25.35;;;11.43;;
34152;SDS011;20426;48.372;10.888;2024-01-11T02:44:19;21.45;;;9.35;;
34152;SDS011;20426;48.372;10.888;2024-01-11T02:44:49;20.27;;;10.45;;
34152;SDS011;20426;48.372;10.888;2024-01-11T02:45:20;24.77;;;11.15;;
34152;SDS011;20426;48.372;10.888;2024-01-11T02:45:54;24.20;;;10.65;;
34152;SDS011;20426;48.372;10.888;2024-01-11T02:46:25;21.35;;;9.48;;
34152;SDS011;20426;48.372;10.888;2024-01-11T02:46:56;23.65;;;9.05;;
34152;SDS011;20426;48.372;10.888;2024-01-11T02:47:27;23.48;;;10.07;;
34152;SDS011;20426;48.372;10.888;2024-01-11T02:47:58;21.77;;;10.00;;
34152;SDS011;20426;48.372;10.888;2024-01-11T02:48:29;23.70;;;11.25;;
34152;SDS011;20426;48.372;10.888;2024-01-11T02:49:00;21.83;;;10.15;;
34152;SDS011;20426;48.372;10.888;2024-01-11T02:49:30;19.55;;;9.25;;
34152;SDS011;20426;48.372;10.888;2024-01-11T02:50:01;22.60;;;11.20;;
34152;SDS011;20426;48.372;10.888;2024-01-11T02:50:32;17.33;;;8.88;;
34152;SDS011;20426;48.372;10.888;2024-01-11T02:51:02;24.48;;;10.10;;
34152;SDS011;20426;48.372;10.888;2024-01-11T02:51:33;19.25;;;10.43;;
34152;SDS011;20426;48.372;10.888;2024-01-11T02:52:05;18.67;;;9.77;;
34152;SDS011;20426;48.372;10.888;2024-01-11T02:52:36;24.42;;;9.68;;
34152;SDS011;20426;48.372;10.888;2024-01-11T02:53:07;25.27;;;11.05;;
34152;SDS011;20426;48.372;10.888;2024-01-11T02:53:37;17.55;;;9.32;;
34152;SDS011;20426;48.372;10.888;2024-01-11T02:54:08;25.83;;;11.88;;
34152;SDS011;20426;48.372;10.888;2024-01-11T02:54:39;20.83;;;9.70;;
34152;SDS011;20426;48.372;10.888;2024-01-11T02:55:10;20.95;;;11.25;;
34152;SDS011;20426;48.372;10.888;2024-01-11T02:55:41;23.00;;;10.98;;
34152;SDS011;20426;48.372;10.888;2024-01-11T02:56:11;23.40;;;9.23;;
34152;SDS011;20426;48.372;10.888;2024-01-11T02:56:42;21.83;;;10.95;;
34152;SDS011;20426;48.372;10.888;2024-01-11T02:57:13;21.95;;;8.80;;
34152;SDS011;20426;48.372;10.888;2024-01-11T02:57:43;18.60;;;8.77;;
34152;SDS011;20426;48.372;10.888;2024-01-11T02:58:14;19.75;;;9.63;;
34152;SDS011;20426;48.372;10.888;2024-01-11T02:58:45;21.13;;;10.15;;
34152;SDS011;20426;48.372;10.888;2024-01-11T02:59:15;21.55;;;11.45;;
34152;SDS011;20426;48.372;10.888;2024-01-11T02:59:46;27.20;;;11.75;;
34152;SDS011;20426;48.372;10.888;2024-01-11T03:00:17;18.45;;;9.50;;
34152;SDS011;20426;48.372;10.888;2024-01-11T03:00:48;24.05;;;11.38;;
34152;SDS011;20426;48.372;10.888;2024-01-11T03:01:18;21.38;;;10.48;;
34152;SDS011;20426;48.372;10.888;2024-01-11T03:01:49;24.08;;;9.93;;
34152;SDS011;20426;48.372;10.888;2024-01-11T03:02:20;20.10;;;9.40;;
34152;SDS011;20426;48.372;10.888;2024-01-11T03:02:51;26.77;;;10.90;;
34152;SDS011;20426;48.372;10.888;2024-01-11T03:03:21;21.88;;;10.85;;
34152;SDS011;20426;48.372;10.888;2024-01-11T03:03:52;19.15;;;8.00;;
34152;SDS011;20426;48.372;10.888;2024-01-11T03:04:24;18.27;;;9.55;;
34152;SDS011;20426;48.372;10.888;2024-01-11T03:04:55;24.90;;;11.25;;